Observations for PERUGIA, Italy (LIRZ)

LIRZ 260504Z AUTO 01004KT 0350 R01/0600D FG FEW001/// 17/17 Q1018
LIRZ 260451Z AUTO 02004KT 0600 R01/P1500N FG NCD 17/17 Q1018
LIRZ 260450Z AUTO 02003KT 0900 R01/P1500N FG NCD 17/17 Q1018
LIRZ 260353Z AUTO 02003KT 4900 BR NCD 17/17 Q1017
LIRZ 260350Z AUTO 02003KT 5000 BR NCD 17/17 Q1017   
LIRZ 260311Z AUTO VRB02KT 5000 BR NCD 18/17 Q1017
LIRZ 260250Z AUTO VRB01KT 4300 BR NCD 17/17 Q1017   
LIRZ 260237Z AUTO VRB02KT 4900 BR NCD 17/17 Q1017
LIRZ 260150Z AUTO 35002KT 5000 BR NCD 18/17 Q1017   
LIRZ 260121Z AUTO 36003KT 4900 BR NCD 18/17 Q1017
LIRZ 260050Z AUTO VRB02KT 6000 NCD 18/17 Q1017  
LIRZ 252350Z AUTO VRB02KT 9999 NCD 19/18 Q1018  
LIRZ 252250Z AUTO 02003KT 9000 NCD 19/18 Q1018  
LIRZ 252150Z AUTO 03002KT 9999 NCD 19/18 Q1018  
LIRZ 252050Z AUTO 34004KT 9999 FEW160/// 20/18 Q1018
LIRZ 252050Z AUTO 34004KT 9999 FEW160 20/18 Q1018
LIRZ 251950Z AUTO VRB01KT //// NCD 21/18 Q1018  
LIRZ 251850Z AUTO 35002KT //// NCD 21/18 Q1017  
LIRZ 251750Z AUTO VRB02KT //// NCD 23/18 Q1017  
LIRZ 251650Z AUTO VRB05KT //// FEW043/// 26/17 Q1017
LIRZ 251650Z AUTO VRB05KT //// FEW043 26/17 Q1017
LIRZ 251550Z AUTO 35009KT //// BKN140/// 25/18 Q1016
LIRZ 251550Z AUTO 35009KT //// BKN140 25/18 Q1016
LIRZ 251450Z AUTO 01013KT //// FEW140/// 25/18 Q1016
LIRZ 251450Z AUTO 01013KT //// FEW140 25/18 Q1016
LIRZ 251350Z 04011KT 9999 VCTS SCT045CB 30/16 Q1016 
LIRZ 251250Z VRB03KT 9999 FEW045CB 31/15 Q1016  
LIRZ 251150Z 04003KT 340V100 9999 FEW045CB 30/16 Q1017  
LIRZ 251050Z 25003KT 200V310 9999 FEW045 29/16 Q1017
LIRZ 250950Z VRB02KT 9999 FEW045 27/18 Q1018
LIRZ 250850Z 11003KT 040V170 CAVOK 25/19 Q1018  
LIRZ 250750Z VRB01KT CAVOK 24/19 Q1018  
LIRZ 250650Z 01003KT 310V040 CAVOK 21/19 Q1018  
LIRZ 250550Z 33004KT 9999 FEW010 19/18 Q1018
LIRZ 250450Z AUTO VRB02KT //// FEW120/// 18/17 Q1018
LIRZ 250459Z VRB02KT 9000 FEW010 18/17 Q1018
LIRZ 250450Z AUTO VRB02KT //// FEW120 18/17 Q1018